sensor_id;sensor_type;location;lat;lon;timestamp;P1;durP1;ratioP1;P2;durP2;ratioP2
18249;SDS011;27980;52.126;5.572;2023-08-24T00:00:15;4.72;;;3.70;;
18249;SDS011;27980;52.126;5.572;2023-08-24T00:02:41;6.05;;;2.90;;
18249;SDS011;27980;52.126;5.572;2023-08-24T00:05:09;4.78;;;2.85;;
18249;SDS011;27980;52.126;5.572;2023-08-24T00:07:36;5.13;;;3.72;;
18249;SDS011;27980;52.126;5.572;2023-08-24T00:10:02;4.93;;;3.42;;
18249;SDS011;27980;52.126;5.572;2023-08-24T00:12:29;6.00;;;3.88;;
18249;SDS011;27980;52.126;5.572;2023-08-24T00:14:57;3.72;;;3.20;;
18249;SDS011;27980;52.126;5.572;2023-08-24T00:17:23;5.30;;;3.35;;
18249;SDS011;27980;52.126;5.572;2023-08-24T00:19:50;3.42;;;2.92;;
18249;SDS011;27980;52.126;5.572;2023-08-24T00:22:17;3.53;;;3.15;;
18249;SDS011;27980;52.126;5.572;2023-08-24T00:24:43;3.75;;;3.35;;
18249;SDS011;27980;52.126;5.572;2023-08-24T00:27:10;4.72;;;3.30;;
18249;SDS011;27980;52.126;5.572;2023-08-24T00:29:38;4.28;;;3.30;;
18249;SDS011;27980;52.126;5.572;2023-08-24T00:32:09;3.92;;;3.30;;
18249;SDS011;27980;52.126;5.572;2023-08-24T00:34:35;4.57;;;3.20;;
18249;SDS011;27980;52.126;5.572;2023-08-24T00:37:02;6.47;;;3.45;;
18249;SDS011;27980;52.126;5.572;2023-08-24T00:39:28;4.55;;;3.33;;
18249;SDS011;27980;52.126;5.572;2023-08-24T00:41:55;5.38;;;3.40;;
18249;SDS011;27980;52.126;5.572;2023-08-24T00:44:21;5.13;;;3.78;;
18249;SDS011;27980;52.126;5.572;2023-08-24T00:46:48;5.88;;;3.58;;
18249;SDS011;27980;52.126;5.572;2023-08-24T00:49:18;5.28;;;3.38;;
18249;SDS011;27980;52.126;5.572;2023-08-24T00:51:45;5.28;;;3.22;;
18249;SDS011;27980;52.126;5.572;2023-08-24T00:54:11;7.35;;;3.78;;
18249;SDS011;27980;52.126;5.572;2023-08-24T00:56:38;4.85;;;3.60;;
18249;SDS011;27980;52.126;5.572;2023-08-24T00:59:04;3.42;;;2.90;;
18249;SDS011;27980;52.126;5.572;2023-08-24T01:01:31;6.82;;;3.63;;
18249;SDS011;27980;52.126;5.572;2023-08-24T01:03:57;6.68;;;3.42;;
18249;SDS011;27980;52.126;5.572;2023-08-24T01:06:25;4.18;;;3.20;;
18249;SDS011;27980;52.126;5.572;2023-08-24T01:08:51;8.07;;;3.53;;
18249;SDS011;27980;52.126;5.572;2023-08-24T01:11:20;5.75;;;3.65;;
18249;SDS011;27980;52.126;5.572;2023-08-24T01:13:50;4.20;;;3.42;;
18249;SDS011;27980;52.126;5.572;2023-08-24T01:16:18;4.70;;;3.55;;
18249;SDS011;27980;52.126;5.572;2023-08-24T01:18:45;5.80;;;3.60;;
18249;SDS011;27980;52.126;5.572;2023-08-24T01:21:13;5.60;;;3.38;;
18249;SDS011;27980;52.126;5.572;2023-08-24T01:23:43;5.88;;;4.05;;
18249;SDS011;27980;52.126;5.572;2023-08-24T01:26:12;4.60;;;3.40;;
18249;SDS011;27980;52.126;5.572;2023-08-24T01:28:43;4.30;;;3.75;;
18249;SDS011;27980;52.126;5.572;2023-08-24T01:31:09;4.28;;;3.45;;
18249;SDS011;27980;52.126;5.572;2023-08-24T01:33:35;6.97;;;3.45;;
18249;SDS011;27980;52.126;5.572;2023-08-24T01:36:02;5.45;;;4.00;;
18249;SDS011;27980;52.126;5.572;2023-08-24T01:38:29;4.38;;;3.67;;
18249;SDS011;27980;52.126;5.572;2023-08-24T01:40:58;5.15;;;3.30;;
18249;SDS011;27980;52.126;5.572;2023-08-24T01:43:30;4.78;;;3.53;;
18249;SDS011;27980;52.126;5.572;2023-08-24T01:45:59;3.95;;;3.40;;
18249;SDS011;27980;52.126;5.572;2023-08-24T01:48:26;6.05;;;3.40;;
18249;SDS011;27980;52.126;5.572;2023-08-24T01:50:53;3.88;;;3.47;;
18249;SDS011;27980;52.126;5.572;2023-08-24T01:53:20;3.38;;;3.08;;
18249;SDS011;27980;52.126;5.572;2023-08-24T01:55:47;3.92;;;3.40;;
18249;SDS011;27980;52.126;5.572;2023-08-24T01:58:16;6.00;;;3.78;;
18249;SDS011;27980;52.126;5.572;2023-08-24T02:00:43;6.45;;;3.72;;
18249;SDS011;27980;52.126;5.572;2023-08-24T02:03:10;5.28;;;3.42;;
18249;SDS011;27980;52.126;5.572;2023-08-24T02:05:36;3.88;;;3.47;;
18249;SDS011;27980;52.126;5.572;2023-08-24T02:08:03;4.22;;;3.55;;
18249;SDS011;27980;52.126;5.572;2023-08-24T02:10:31;8.07;;;3.55;;
18249;SDS011;27980;52.126;5.572;2023-08-24T02:12:57;3.95;;;3.55;;
18249;SDS011;27980;52.126;5.572;2023-08-24T02:15:23;5.00;;;3.67;;
18249;SDS011;27980;52.126;5.572;2023-08-24T02:17:51;4.88;;;3.92;;
18249;SDS011;27980;52.126;5.572;2023-08-24T02:20:18;9.60;;;3.75;;
18249;SDS011;27980;52.126;5.572;2023-08-24T02:22:44;5.75;;;3.95;;
18249;SDS011;27980;52.126;5.572;2023-08-24T02:25:10;4.72;;;3.50;;
18249;SDS011;27980;52.126;5.572;2023-08-24T02:27:37;9.25;;;4.70;;
18249;SDS011;27980;52.126;5.572;2023-08-24T02:30:04;5.47;;;3.80;;
18249;SDS011;27980;52.126;5.572;2023-08-24T02:32:30;7.65;;;4.07;;
18249;SDS011;27980;52.126;5.572;2023-08-24T02:34:58;5.60;;;4.13;;
18249;SDS011;27980;52.126;5.572;2023-08-24T02:37:25;7.47;;;4.82;;
18249;SDS011;27980;52.126;5.572;2023-08-24T02:39:51;7.10;;;4.32;;
18249;SDS011;27980;52.126;5.572;2023-08-24T02:42:20;4.82;;;4.32;;
18249;SDS011;27980;52.126;5.572;2023-08-24T02:44:47;5.20;;;4.25;;
18249;SDS011;27980;52.126;5.572;2023-08-24T02:47:14;7.05;;;4.80;;
18249;SDS011;27980;52.126;5.572;2023-08-24T02:49:41;6.18;;;4.30;;
18249;SDS011;27980;52.126;5.572;2023-08-24T02:52:09;5.82;;;4.53;;
18249;SDS011;27980;52.126;5.572;2023-08-24T02:54:36;6.97;;;4.72;;
18249;SDS011;27980;52.126;5.572;2023-08-24T02:57:02;6.90;;;5.00;;
18249;SDS011;27980;52.126;5.572;2023-08-24T02:59:29;7.70;;;5.57;;
18249;SDS011;27980;52.126;5.572;2023-08-24T03:01:56;9.35;;;5.93;;
18249;SDS011;27980;52.126;5.572;2023-08-24T03:04:22;7.75;;;5.88;;
18249;SDS011;27980;52.126;5.572;2023-08-24T03:06:49;10.95;;;6.80;;
18249;SDS011;27980;52.126;5.572;2023-08-24T03:09:19;11.57;;;6.63;;
18249;SDS011;27980;52.126;5.572;2023-08-24T03:11:46;9.38;;;6.63;;
18249;SDS011;27980;52.126;5.572;2023-08-24T03:14:12;10.85;;;6.70;;
18249;SDS011;27980;52.126;5.572;2023-08-24T03:16:39;15.35;;;6.45;;
18249;SDS011;27980;52.126;5.572;2023-08-24T03:19:05;9.07;;;6.45;;
18249;SDS011;27980;52.126;5.572;2023-08-24T03:21:32;15.02;;;6.97;;
18249;SDS011;27980;52.126;5.572;2023-08-24T03:24:01;10.00;;;6.40;;
18249;SDS011;27980;52.126;5.572;2023-08-24T03:26:30;9.18;;;5.82;;
18249;SDS011;27980;52.126;5.572;2023-08-24T03:28:57;8.27;;;6.38;;
18249;SDS011;27980;52.126;5.572;2023-08-24T03:31:24;9.45;;;5.70;;
18249;SDS011;27980;52.126;5.572;2023-08-24T03:33:51;8.90;;;6.30;;
18249;SDS011;27980;52.126;5.572;2023-08-24T03:36:17;9.07;;;5.90;;
18249;SDS011;27980;52.126;5.572;2023-08-24T03:38:46;8.18;;;6.00;;
18249;SDS011;27980;52.126;5.572;2023-08-24T03:41:12;7.82;;;5.90;;
18249;SDS011;27980;52.126;5.572;2023-08-24T03:43:40;8.88;;;5.82;;
18249;SDS011;27980;52.126;5.572;2023-08-24T03:46:06;8.48;;;6.35;;
18249;SDS011;27980;52.126;5.572;2023-08-24T03:48:33;10.95;;;6.20;;
18249;SDS011;27980;52.126;5.572;2023-08-24T03:50:59;7.70;;;5.63;;
18249;SDS011;27980;52.126;5.572;2023-08-24T03:53:26;7.07;;;5.82;;
18249;SDS011;27980;52.126;5.572;2023-08-24T03:55:52;9.10;;;6.05;;
18249;SDS011;27980;52.126;5.572;2023-08-24T03:58:19;9.68;;;6.32;;
18249;SDS011;27980;52.126;5.572;2023-08-24T04:00:47;6.50;;;5.60;;
18249;SDS011;27980;52.126;5.572;2023-08-24T04:03:13;8.70;;;5.53;;
18249;SDS011;27980;52.126;5.572;2023-08-24T04:05:41;8.02;;;5.75;;
18249;SDS011;27980;52.126;5.572;2023-08-24T04:08:07;8.43;;;6.18;;
18249;SDS011;27980;52.126;5.572;2023-08-24T04:10:35;11.75;;;6.78;;
18249;SDS011;27980;52.126;5.572;2023-08-24T04:13:02;9.70;;;5.35;;
18249;SDS011;27980;52.126;5.572;2023-08-24T04:15:30;8.85;;;5.95;;
18249;SDS011;27980;52.126;5.572;2023-08-24T04:17:59;10.27;;;6.10;;
18249;SDS011;27980;52.126;5.572;2023-08-24T04:20:25;8.35;;;5.80;;
18249;SDS011;27980;52.126;5.572;2023-08-24T04:22:54;7.65;;;5.97;;
18249;SDS011;27980;52.126;5.572;2023-08-24T04:25:20;9.88;;;6.25;;
18249;SDS011;27980;52.126;5.572;2023-08-24T04:27:46;12.18;;;6.18;;
18249;SDS011;27980;52.126;5.572;2023-08-24T04:30:13;8.65;;;6.05;;
18249;SDS011;27980;52.126;5.572;2023-08-24T04:32:39;7.90;;;5.82;;
18249;SDS011;27980;52.126;5.572;2023-08-24T04:35:08;6.55;;;5.68;;
18249;SDS011;27980;52.126;5.572;2023-08-24T04:37:35;9.65;;;6.05;;
18249;SDS011;27980;52.126;5.572;2023-08-24T04:40:02;10.32;;;5.80;;
18249;SDS011;27980;52.126;5.572;2023-08-24T04:42:29;6.78;;;5.82;;
18249;SDS011;27980;52.126;5.572;2023-08-24T04:44:56;8.23;;;5.90;;
18249;SDS011;27980;52.126;5.572;2023-08-24T04:47:22;7.72;;;5.60;;
18249;SDS011;27980;52.126;5.572;2023-08-24T04:49:50;9.52;;;6.20;;
18249;SDS011;27980;52.126;5.572;2023-08-24T04:52:18;8.40;;;6.10;;
18249;SDS011;27980;52.126;5.572;2023-08-24T04:54:44;7.45;;;5.93;;
18249;SDS011;27980;52.126;5.572;2023-08-24T04:57:11;9.23;;;6.05;;
18249;SDS011;27980;52.126;5.572;2023-08-24T04:59:38;9.05;;;6.60;;
18249;SDS011;27980;52.126;5.572;2023-08-24T05:02:06;8.70;;;5.53;;
18249;SDS011;27980;52.126;5.572;2023-08-24T05:04:33;8.13;;;5.78;;
18249;SDS011;27980;52.126;5.572;2023-08-24T05:06:59;9.23;;;5.80;;
18249;SDS011;27980;52.126;5.572;2023-08-24T05:09:27;7.10;;;5.45;;
18249;SDS011;27980;52.126;5.572;2023-08-24T05:11:54;6.93;;;5.65;;
18249;SDS011;27980;52.126;5.572;2023-08-24T05:14:22;9.98;;;5.68;;
18249;SDS011;27980;52.126;5.572;2023-08-24T05:16:49;8.85;;;5.55;;
18249;SDS011;27980;52.126;5.572;2023-08-24T05:19:16;7.28;;;6.15;;
18249;SDS011;27980;52.126;5.572;2023-08-24T05:21:42;9.20;;;5.40;;
18249;SDS011;27980;52.126;5.572;2023-08-24T05:24:08;8.10;;;5.40;;
18249;SDS011;27980;52.126;5.572;2023-08-24T05:26:40;9.85;;;6.03;;
18249;SDS011;27980;52.126;5.572;2023-08-24T05:29:07;7.25;;;5.90;;
18249;SDS011;27980;52.126;5.572;2023-08-24T05:31:35;10.57;;;6.47;;
18249;SDS011;27980;52.126;5.572;2023-08-24T05:34:02;11.30;;;6.55;;
18249;SDS011;27980;52.126;5.572;2023-08-24T05:36:29;8.45;;;6.15;;
18249;SDS011;27980;52.126;5.572;2023-08-24T05:38:55;9.75;;;5.70;;
18249;SDS011;27980;52.126;5.572;2023-08-24T05:41:22;7.60;;;5.75;;
18249;SDS011;27980;52.126;5.572;2023-08-24T05:43:51;9.38;;;6.35;;
18249;SDS011;27980;52.126;5.572;2023-08-24T05:46:18;9.80;;;6.10;;
18249;SDS011;27980;52.126;5.572;2023-08-24T05:48:45;9.60;;;6.47;;
18249;SDS011;27980;52.126;5.572;2023-08-24T05:51:12;9.07;;;6.25;;
18249;SDS011;27980;52.126;5.572;2023-08-24T05:53:38;8.63;;;6.15;;
18249;SDS011;27980;52.126;5.572;2023-08-24T05:56:07;8.60;;;6.40;;
18249;SDS011;27980;52.126;5.572;2023-08-24T05:58:33;7.85;;;6.22;;
18249;SDS011;27980;52.126;5.572;2023-08-24T06:01:01;10.30;;;6.93;;
18249;SDS011;27980;52.126;5.572;2023-08-24T06:03:27;9.63;;;6.22;;
18249;SDS011;27980;52.126;5.572;2023-08-24T06:05:54;8.35;;;6.72;;
18249;SDS011;27980;52.126;5.572;2023-08-24T06:08:26;9.30;;;6.25;;
18249;SDS011;27980;52.126;5.572;2023-08-24T06:10:52;9.15;;;6.22;;
18249;SDS011;27980;52.126;5.572;2023-08-24T06:13:19;10.02;;;7.10;;
18249;SDS011;27980;52.126;5.572;2023-08-24T06:15:45;9.45;;;7.18;;
18249;SDS011;27980;52.126;5.572;2023-08-24T06:18:15;7.97;;;6.38;;
18249;SDS011;27980;52.126;5.572;2023-08-24T06:20:43;10.02;;;6.68;;
18249;SDS011;27980;52.126;5.572;2023-08-24T06:23:10;12.75;;;6.78;;
18249;SDS011;27980;52.126;5.572;2023-08-24T06:25:38;8.27;;;6.40;;
18249;SDS011;27980;52.126;5.572;2023-08-24T06:28:04;9.60;;;6.60;;
18249;SDS011;27980;52.126;5.572;2023-08-24T06:30:32;9.00;;;6.82;;
18249;SDS011;27980;52.126;5.572;2023-08-24T06:33:02;10.80;;;7.30;;
18249;SDS011;27980;52.126;5.572;2023-08-24T06:35:30;11.65;;;7.63;;
18249;SDS011;27980;52.126;5.572;2023-08-24T06:37:56;10.52;;;7.13;;
18249;SDS011;27980;52.126;5.572;2023-08-24T06:40:23;10.05;;;6.90;;
18249;SDS011;27980;52.126;5.572;2023-08-24T06:42:49;9.73;;;6.63;;
18249;SDS011;27980;52.126;5.572;2023-08-24T06:45:16;9.23;;;7.15;;
18249;SDS011;27980;52.126;5.572;2023-08-24T06:47:44;8.45;;;6.45;;
18249;SDS011;27980;52.126;5.572;2023-08-24T06:50:11;7.60;;;6.72;;
18249;SDS011;27980;52.126;5.572;2023-08-24T06:52:39;11.43;;;8.80;;
18249;SDS011;27980;52.126;5.572;2023-08-24T06:55:06;12.88;;;10.80;;
18249;SDS011;27980;52.126;5.572;2023-08-24T06:57:34;16.27;;;10.05;;
18249;SDS011;27980;52.126;5.572;2023-08-24T07:00:00;11.07;;;8.93;;
18249;SDS011;27980;52.126;5.572;2023-08-24T07:02:31;15.50;;;8.23;;
18249;SDS011;27980;52.126;5.572;2023-08-24T07:04:58;11.15;;;8.10;;
18249;SDS011;27980;52.126;5.572;2023-08-24T07:07:26;9.93;;;7.45;;
18249;SDS011;27980;52.126;5.572;2023-08-24T07:09:53;10.82;;;7.68;;
18249;SDS011;27980;52.126;5.572;2023-08-24T07:12:20;10.27;;;5.97;;
18249;SDS011;27980;52.126;5.572;2023-08-24T07:14:46;6.80;;;5.47;;
18249;SDS011;27980;52.126;5.572;2023-08-24T07:17:12;6.32;;;5.47;;
18249;SDS011;27980;52.126;5.572;2023-08-24T07:19:39;9.40;;;5.53;;
18249;SDS011;27980;52.126;5.572;2023-08-24T07:22:06;8.13;;;5.45;;
18249;SDS011;27980;52.126;5.572;2023-08-24T07:24:33;5.50;;;4.88;;
18249;SDS011;27980;52.126;5.572;2023-08-24T07:27:04;8.10;;;5.43;;
18249;SDS011;27980;52.126;5.572;2023-08-24T07:29:30;5.15;;;4.38;;
18249;SDS011;27980;52.126;5.572;2023-08-24T07:31:57;9.25;;;5.47;;
18249;SDS011;27980;52.126;5.572;2023-08-24T07:34:23;7.15;;;4.78;;
18249;SDS011;27980;52.126;5.572;2023-08-24T07:36:50;8.02;;;5.15;;
18249;SDS011;27980;52.126;5.572;2023-08-24T07:39:17;6.38;;;4.82;;
18249;SDS011;27980;52.126;5.572;2023-08-24T07:41:43;5.95;;;4.65;;
18249;SDS011;27980;52.126;5.572;2023-08-24T07:44:12;5.68;;;4.50;;
18249;SDS011;27980;52.126;5.572;2023-08-24T07:46:39;5.80;;;4.20;;
18249;SDS011;27980;52.126;5.572;2023-08-24T07:49:05;6.50;;;4.75;;
18249;SDS011;27980;52.126;5.572;2023-08-24T07:51:32;6.30;;;5.13;;
18249;SDS011;27980;52.126;5.572;2023-08-24T07:53:58;5.28;;;4.78;;
18249;SDS011;27980;52.126;5.572;2023-08-24T07:56:25;4.72;;;3.95;;
18249;SDS011;27980;52.126;5.572;2023-08-24T07:58:53;5.22;;;4.03;;
18249;SDS011;27980;52.126;5.572;2023-08-24T08:01:21;6.15;;;4.72;;
18249;SDS011;27980;52.126;5.572;2023-08-24T08:03:47;7.05;;;3.92;;
18249;SDS011;27980;52.126;5.572;2023-08-24T08:06:14;5.13;;;4.10;;
18249;SDS011;27980;52.126;5.572;2023-08-24T08:08:40;6.72;;;4.03;;
18249;SDS011;27980;52.126;5.572;2023-08-24T08:11:07;5.53;;;3.45;;
18249;SDS011;27980;52.126;5.572;2023-08-24T08:13:33;5.25;;;3.47;;
18249;SDS011;27980;52.126;5.572;2023-08-24T08:16:00;5.00;;;3.42;;
18249;SDS011;27980;52.126;5.572;2023-08-24T08:18:29;4.55;;;3.67;;
18249;SDS011;27980;52.126;5.572;2023-08-24T08:20:56;7.53;;;3.80;;
18249;SDS011;27980;52.126;5.572;2023-08-24T08:23:22;5.40;;;3.97;;
18249;SDS011;27980;52.126;5.572;2023-08-24T08:25:48;3.50;;;3.17;;
18249;SDS011;27980;52.126;5.572;2023-08-24T08:28:15;4.20;;;3.42;;
18249;SDS011;27980;52.126;5.572;2023-08-24T08:30:43;3.83;;;2.83;;
18249;SDS011;27980;52.126;5.572;2023-08-24T08:33:10;4.03;;;3.17;;
18249;SDS011;27980;52.126;5.572;2023-08-24T08:35:38;4.20;;;3.15;;
18249;SDS011;27980;52.126;5.572;2023-08-24T08:38:05;6.00;;;3.92;;
18249;SDS011;27980;52.126;5.572;2023-08-24T08:40:32;4.43;;;3.28;;
18249;SDS011;27980;52.126;5.572;2023-08-24T08:43:02;3.50;;;3.20;;
18249;SDS011;27980;52.126;5.572;2023-08-24T08:45:28;4.50;;;2.85;;
18249;SDS011;27980;52.126;5.572;2023-08-24T08:47:56;5.78;;;3.42;;
18249;SDS011;27980;52.126;5.572;2023-08-24T08:50:23;3.25;;;2.88;;
18249;SDS011;27980;52.126;5.572;2023-08-24T08:52:52;5.35;;;3.45;;
18249;SDS011;27980;52.126;5.572;2023-08-24T08:55:18;6.03;;;3.88;;
18249;SDS011;27980;52.126;5.572;2023-08-24T08:57:45;4.70;;;3.40;;
18249;SDS011;27980;52.126;5.572;2023-08-24T09:00:12;4.68;;;3.33;;
18249;SDS011;27980;52.126;5.572;2023-08-24T09:02:40;4.38;;;3.53;;
18249;SDS011;27980;52.126;5.572;2023-08-24T09:05:09;3.95;;;2.97;;
18249;SDS011;27980;52.126;5.572;2023-08-24T09:07:35;3.58;;;3.20;;
18249;SDS011;27980;52.126;5.572;2023-08-24T09:10:04;4.88;;;3.30;;
18249;SDS011;27980;52.126;5.572;2023-08-24T09:12:32;3.10;;;2.70;;
18249;SDS011;27980;52.126;5.572;2023-08-24T09:14:59;5.78;;;3.50;;
18249;SDS011;27980;52.126;5.572;2023-08-24T09:17:26;3.58;;;2.72;;
18249;SDS011;27980;52.126;5.572;2023-08-24T09:19:55;4.05;;;3.15;;
18249;SDS011;27980;52.126;5.572;2023-08-24T09:22:23;6.28;;;3.30;;
18249;SDS011;27980;52.126;5.572;2023-08-24T09:24:50;4.90;;;3.03;;
18249;SDS011;27980;52.126;5.572;2023-08-24T09:27:18;5.82;;;3.15;;
18249;SDS011;27980;52.126;5.572;2023-08-24T09:29:47;5.00;;;2.65;;
18249;SDS011;27980;52.126;5.572;2023-08-24T09:32:13;3.80;;;2.95;;
18249;SDS011;27980;52.126;5.572;2023-08-24T09:34:40;4.13;;;3.20;;
18249;SDS011;27980;52.126;5.572;2023-08-24T09:37:12;3.95;;;2.72;;
18249;SDS011;27980;52.126;5.572;2023-08-24T09:39:39;3.03;;;2.20;;
18249;SDS011;27980;52.126;5.572;2023-08-24T09:42:05;5.22;;;2.45;;
18249;SDS011;27980;52.126;5.572;2023-08-24T09:44:33;4.47;;;3.13;;
18249;SDS011;27980;52.126;5.572;2023-08-24T09:47:00;3.67;;;2.90;;
18249;SDS011;27980;52.126;5.572;2023-08-24T09:49:26;3.10;;;2.38;;
18249;SDS011;27980;52.126;5.572;2023-08-24T09:51:54;3.90;;;2.28;;
18249;SDS011;27980;52.126;5.572;2023-08-24T09:54:22;3.55;;;2.50;;
18249;SDS011;27980;52.126;5.572;2023-08-24T09:56:51;3.75;;;2.55;;
18249;SDS011;27980;52.126;5.572;2023-08-24T09:59:18;4.03;;;2.28;;
18249;SDS011;27980;52.126;5.572;2023-08-24T10:01:49;2.60;;;2.22;;
18249;SDS011;27980;52.126;5.572;2023-08-24T10:04:17;3.97;;;2.40;;
18249;SDS011;27980;52.126;5.572;2023-08-24T10:06:44;3.00;;;2.70;;
18249;SDS011;27980;52.126;5.572;2023-08-24T10:09:17;2.55;;;2.13;;
18249;SDS011;27980;52.126;5.572;2023-08-24T10:11:46;3.35;;;2.42;;
18249;SDS011;27980;52.126;5.572;2023-08-24T10:14:15;2.80;;;2.22;;
18249;SDS011;27980;52.126;5.572;2023-08-24T10:16:43;2.92;;;2.67;;
18249;SDS011;27980;52.126;5.572;2023-08-24T10:19:12;5.88;;;3.40;;
18249;SDS011;27980;52.126;5.572;2023-08-24T10:21:39;3.17;;;2.70;;
18249;SDS011;27980;52.126;5.572;2023-08-24T10:24:06;2.85;;;2.60;;
18249;SDS011;27980;52.126;5.572;2023-08-24T10:26:32;4.28;;;2.78;;
18249;SDS011;27980;52.126;5.572;2023-08-24T10:29:00;4.30;;;2.60;;
18249;SDS011;27980;52.126;5.572;2023-08-24T10:31:26;4.90;;;2.78;;
18249;SDS011;27980;52.126;5.572;2023-08-24T10:33:54;4.25;;;2.50;;
18249;SDS011;27980;52.126;5.572;2023-08-24T10:36:22;3.78;;;2.42;;
18249;SDS011;27980;52.126;5.572;2023-08-24T10:38:49;3.60;;;2.90;;
18249;SDS011;27980;52.126;5.572;2023-08-24T10:41:15;5.13;;;3.55;;
18249;SDS011;27980;52.126;5.572;2023-08-24T10:43:47;5.60;;;3.90;;
18249;SDS011;27980;52.126;5.572;2023-08-24T10:46:14;6.35;;;3.83;;
18249;SDS011;27980;52.126;5.572;2023-08-24T10:48:56;5.25;;;4.07;;
18249;SDS011;27980;52.126;5.572;2023-08-24T10:51:24;5.35;;;4.00;;
18249;SDS011;27980;52.126;5.572;2023-08-24T10:53:55;7.63;;;4.55;;
18249;SDS011;27980;52.126;5.572;2023-08-24T10:56:29;6.47;;;4.90;;
18249;SDS011;27980;52.126;5.572;2023-08-24T11:01:39;8.38;;;5.80;;
18249;SDS011;27980;52.126;5.572;2023-08-24T11:04:06;9.68;;;5.47;;
18249;SDS011;27980;52.126;5.572;2023-08-24T11:06:50;7.55;;;6.13;;
18249;SDS011;27980;52.126;5.572;2023-08-24T11:09:17;6.60;;;4.30;;
18249;SDS011;27980;52.126;5.572;2023-08-24T11:12:00;9.60;;;6.20;;
18249;SDS011;27980;52.126;5.572;2023-08-24T11:14:28;6.90;;;5.88;;
18249;SDS011;27980;52.126;5.572;2023-08-24T11:16:56;8.75;;;6.20;;
18249;SDS011;27980;52.126;5.572;2023-08-24T11:19:23;8.32;;;5.90;;
18249;SDS011;27980;52.126;5.572;2023-08-24T11:21:52;10.13;;;5.63;;
18249;SDS011;27980;52.126;5.572;2023-08-24T11:24:18;7.07;;;5.40;;
18249;SDS011;27980;52.126;5.572;2023-08-24T11:26:46;6.32;;;5.63;;
18249;SDS011;27980;52.126;5.572;2023-08-24T11:29:13;7.57;;;5.80;;
18249;SDS011;27980;52.126;5.572;2023-08-24T11:31:40;8.85;;;5.03;;
18249;SDS011;27980;52.126;5.572;2023-08-24T11:34:07;7.22;;;5.45;;
18249;SDS011;27980;52.126;5.572;2023-08-24T11:36:41;7.38;;;5.40;;
18249;SDS011;27980;52.126;5.572;2023-08-24T11:39:13;10.52;;;6.63;;
18249;SDS011;27980;52.126;5.572;2023-08-24T11:41:40;7.28;;;5.78;;
18249;SDS011;27980;52.126;5.572;2023-08-24T11:44:07;9.68;;;6.38;;
18249;SDS011;27980;52.126;5.572;2023-08-24T11:46:33;10.48;;;5.45;;
18249;SDS011;27980;52.126;5.572;2023-08-24T11:49:00;7.50;;;5.28;;
18249;SDS011;27980;52.126;5.572;2023-08-24T11:51:26;11.52;;;6.88;;
18249;SDS011;27980;52.126;5.572;2023-08-24T11:53:53;9.25;;;6.55;;
18249;SDS011;27980;52.126;5.572;2023-08-24T11:56:23;10.18;;;6.35;;
18249;SDS011;27980;52.126;5.572;2023-08-24T11:58:50;9.63;;;6.85;;
18249;SDS011;27980;52.126;5.572;2023-08-24T12:01:17;7.82;;;5.93;;
18249;SDS011;27980;52.126;5.572;2023-08-24T12:03:43;8.43;;;6.32;;
18249;SDS011;27980;52.126;5.572;2023-08-24T12:06:10;10.20;;;6.50;;
18249;SDS011;27980;52.126;5.572;2023-08-24T12:08:37;9.18;;;6.30;;
18249;SDS011;27980;52.126;5.572;2023-08-24T12:11:09;9.02;;;5.90;;
18249;SDS011;27980;52.126;5.572;2023-08-24T12:13:37;9.90;;;6.32;;
18249;SDS011;27980;52.126;5.572;2023-08-24T12:16:06;6.40;;;5.63;;
18249;SDS011;27980;52.126;5.572;2023-08-24T12:18:35;6.82;;;5.72;;
18249;SDS011;27980;52.126;5.572;2023-08-24T12:21:04;7.97;;;5.75;;
18249;SDS011;27980;52.126;5.572;2023-08-24T12:23:31;5.93;;;5.30;;
18249;SDS011;27980;52.126;5.572;2023-08-24T12:25:58;6.57;;;4.88;;
18249;SDS011;27980;52.126;5.572;2023-08-24T12:28:24;8.98;;;5.78;;
18249;SDS011;27980;52.126;5.572;2023-08-24T12:30:52;7.25;;;5.68;;
18249;SDS011;27980;52.126;5.572;2023-08-24T12:33:27;7.85;;;5.43;;
18249;SDS011;27980;52.126;5.572;2023-08-24T12:35:54;8.25;;;6.00;;
18249;SDS011;27980;52.126;5.572;2023-08-24T12:38:21;7.88;;;6.45;;
18249;SDS011;27980;52.126;5.572;2023-08-24T12:40:48;10.25;;;5.25;;
18249;SDS011;27980;52.126;5.572;2023-08-24T12:43:15;8.80;;;5.53;;
18249;SDS011;27980;52.126;5.572;2023-08-24T12:45:41;9.18;;;5.13;;
18249;SDS011;27980;52.126;5.572;2023-08-24T12:48:09;5.80;;;5.10;;
18249;SDS011;27980;52.126;5.572;2023-08-24T12:50:38;5.28;;;4.00;;
18249;SDS011;27980;52.126;5.572;2023-08-24T12:53:04;6.82;;;5.63;;
18249;SDS011;27980;52.126;5.572;2023-08-24T12:55:31;9.20;;;5.75;;
18249;SDS011;27980;52.126;5.572;2023-08-24T12:57:58;6.55;;;5.15;;
18249;SDS011;27980;52.126;5.572;2023-08-24T13:00:25;6.57;;;4.97;;
18249;SDS011;27980;52.126;5.572;2023-08-24T13:02:52;7.05;;;5.90;;
18249;SDS011;27980;52.126;5.572;2023-08-24T13:05:22;7.97;;;5.22;;
18249;SDS011;27980;52.126;5.572;2023-08-24T13:07:49;7.47;;;6.10;;
18249;SDS011;27980;52.126;5.572;2023-08-24T13:10:16;7.40;;;5.68;;
18249;SDS011;27980;52.126;5.572;2023-08-24T13:12:42;10.70;;;6.82;;
18249;SDS011;27980;52.126;5.572;2023-08-24T13:15:09;7.68;;;6.50;;
18249;SDS011;27980;52.126;5.572;2023-08-24T13:17:38;9.23;;;5.78;;
18249;SDS011;27980;52.126;5.572;2023-08-24T13:20:05;8.48;;;5.45;;
18249;SDS011;27980;52.126;5.572;2023-08-24T13:22:33;6.43;;;5.47;;
18249;SDS011;27980;52.126;5.572;2023-08-24T13:25:02;9.45;;;6.18;;
18249;SDS011;27980;52.126;5.572;2023-08-24T13:27:29;7.88;;;6.25;;
18249;SDS011;27980;52.126;5.572;2023-08-24T13:29:56;6.90;;;5.78;;
18249;SDS011;27980;52.126;5.572;2023-08-24T13:32:25;7.75;;;5.78;;
18249;SDS011;27980;52.126;5.572;2023-08-24T13:34:52;6.22;;;4.60;;
18249;SDS011;27980;52.126;5.572;2023-08-24T13:37:18;7.43;;;5.25;;
18249;SDS011;27980;52.126;5.572;2023-08-24T13:39:46;8.02;;;5.45;;
18249;SDS011;27980;52.126;5.572;2023-08-24T13:42:12;6.78;;;4.95;;
18249;SDS011;27980;52.126;5.572;2023-08-24T13:44:39;5.22;;;4.28;;
18249;SDS011;27980;52.126;5.572;2023-08-24T13:47:07;7.53;;;5.18;;
18249;SDS011;27980;52.126;5.572;2023-08-24T13:49:33;6.53;;;4.60;;
18249;SDS011;27980;52.126;5.572;2023-08-24T13:52:00;6.25;;;4.60;;
18249;SDS011;27980;52.126;5.572;2023-08-24T13:54:26;10.50;;;5.60;;
18249;SDS011;27980;52.126;5.572;2023-08-24T13:56:54;7.43;;;5.13;;
18249;SDS011;27980;52.126;5.572;2023-08-24T13:59:21;9.65;;;6.40;;
18249;SDS011;27980;52.126;5.572;2023-08-24T14:01:48;8.25;;;5.82;;
18249;SDS011;27980;52.126;5.572;2023-08-24T14:04:15;7.43;;;5.38;;
18249;SDS011;27980;52.126;5.572;2023-08-24T14:06:41;7.15;;;6.45;;
18249;SDS011;27980;52.126;5.572;2023-08-24T14:09:08;12.23;;;6.95;;
18249;SDS011;27980;52.126;5.572;2023-08-24T14:11:34;9.73;;;6.88;;
18249;SDS011;27980;52.126;5.572;2023-08-24T14:14:02;10.35;;;7.65;;
18249;SDS011;27980;52.126;5.572;2023-08-24T14:16:29;10.75;;;8.25;;
18249;SDS011;27980;52.126;5.572;2023-08-24T14:18:55;8.65;;;7.75;;
18249;SDS011;27980;52.126;5.572;2023-08-24T14:21:22;9.40;;;7.13;;
18249;SDS011;27980;52.126;5.572;2023-08-24T14:23:49;10.05;;;7.95;;
18249;SDS011;27980;52.126;5.572;2023-08-24T14:26:16;12.38;;;8.57;;
18249;SDS011;27980;52.126;5.572;2023-08-24T14:28:49;12.60;;;9.30;;
18249;SDS011;27980;52.126;5.572;2023-08-24T14:31:20;12.90;;;8.85;;
18249;SDS011;27980;52.126;5.572;2023-08-24T14:33:46;13.68;;;10.13;;
18249;SDS011;27980;52.126;5.572;2023-08-24T14:36:12;12.70;;;9.55;;
18249;SDS011;27980;52.126;5.572;2023-08-24T14:38:39;12.65;;;10.35;;
18249;SDS011;27980;52.126;5.572;2023-08-24T14:41:06;16.90;;;11.50;;
18249;SDS011;27980;52.126;5.572;2023-08-24T14:43:32;13.90;;;11.45;;
18249;SDS011;27980;52.126;5.572;2023-08-24T14:45:59;13.82;;;10.73;;
18249;SDS011;27980;52.126;5.572;2023-08-24T14:48:27;12.48;;;10.85;;